sensor_id;sensor_type;location;lat;lon;timestamp;P1;durP1;ratioP1;P2;durP2;ratioP2
10469;SDS011;5282;47.052;15.458;2022-07-01T00:01:35;14.40;;;13.33;;
10469;SDS011;5282;47.052;15.458;2022-07-01T00:04:02;14.30;;;13.20;;
10469;SDS011;5282;47.052;15.458;2022-07-01T00:06:31;14.20;;;13.17;;
10469;SDS011;5282;47.052;15.458;2022-07-01T00:08:59;13.33;;;12.20;;
10469;SDS011;5282;47.052;15.458;2022-07-01T00:11:29;14.03;;;13.10;;
10469;SDS011;5282;47.052;15.458;2022-07-01T00:13:57;15.00;;;13.63;;
10469;SDS011;5282;47.052;15.458;2022-07-01T00:16:23;14.87;;;13.67;;
10469;SDS011;5282;47.052;15.458;2022-07-01T00:18:50;13.27;;;12.30;;
10469;SDS011;5282;47.052;15.458;2022-07-01T00:21:17;13.50;;;12.70;;
10469;SDS011;5282;47.052;15.458;2022-07-01T00:23:47;14.20;;;13.20;;
10469;SDS011;5282;47.052;15.458;2022-07-01T00:26:21;13.60;;;12.70;;
10469;SDS011;5282;47.052;15.458;2022-07-01T00:28:49;13.70;;;12.67;;
10469;SDS011;5282;47.052;15.458;2022-07-01T00:31:16;14.23;;;13.33;;
10469;SDS011;5282;47.052;15.458;2022-07-01T00:33:43;14.03;;;13.13;;
10469;SDS011;5282;47.052;15.458;2022-07-01T00:36:10;14.30;;;13.30;;
10469;SDS011;5282;47.052;15.458;2022-07-01T00:38:37;14.57;;;13.30;;
10469;SDS011;5282;47.052;15.458;2022-07-01T00:41:04;14.47;;;13.33;;
10469;SDS011;5282;47.052;15.458;2022-07-01T00:43:34;14.40;;;13.40;;
10469;SDS011;5282;47.052;15.458;2022-07-01T00:46:05;14.27;;;13.27;;
10469;SDS011;5282;47.052;15.458;2022-07-01T00:48:34;14.30;;;13.57;;
10469;SDS011;5282;47.052;15.458;2022-07-01T00:51:03;14.43;;;13.30;;
10469;SDS011;5282;47.052;15.458;2022-07-01T00:53:32;14.43;;;13.43;;
10469;SDS011;5282;47.052;15.458;2022-07-01T00:56:00;14.67;;;13.87;;
10469;SDS011;5282;47.052;15.458;2022-07-01T00:58:27;14.13;;;13.10;;
10469;SDS011;5282;47.052;15.458;2022-07-01T01:00:57;15.47;;;14.37;;
10469;SDS011;5282;47.052;15.458;2022-07-01T01:03:27;15.50;;;14.07;;
10469;SDS011;5282;47.052;15.458;2022-07-01T01:05:54;14.23;;;13.43;;
10469;SDS011;5282;47.052;15.458;2022-07-01T01:08:25;15.33;;;14.23;;
10469;SDS011;5282;47.052;15.458;2022-07-01T01:10:53;13.80;;;12.80;;
10469;SDS011;5282;47.052;15.458;2022-07-01T01:13:20;14.23;;;13.10;;
10469;SDS011;5282;47.052;15.458;2022-07-01T01:15:47;15.03;;;14.03;;
10469;SDS011;5282;47.052;15.458;2022-07-01T01:18:14;14.90;;;13.80;;
10469;SDS011;5282;47.052;15.458;2022-07-01T01:20:42;14.77;;;13.63;;
10469;SDS011;5282;47.052;15.458;2022-07-01T01:23:09;14.60;;;13.63;;
10469;SDS011;5282;47.052;15.458;2022-07-01T01:25:37;14.67;;;13.77;;
10469;SDS011;5282;47.052;15.458;2022-07-01T01:28:04;15.37;;;14.03;;
10469;SDS011;5282;47.052;15.458;2022-07-01T01:30:31;15.47;;;14.37;;
10469;SDS011;5282;47.052;15.458;2022-07-01T01:32:58;15.47;;;14.33;;
10469;SDS011;5282;47.052;15.458;2022-07-01T01:35:25;15.20;;;14.00;;
10469;SDS011;5282;47.052;15.458;2022-07-01T01:37:53;14.77;;;13.77;;
10469;SDS011;5282;47.052;15.458;2022-07-01T01:40:20;16.17;;;14.73;;
10469;SDS011;5282;47.052;15.458;2022-07-01T01:42:47;14.73;;;13.60;;
10469;SDS011;5282;47.052;15.458;2022-07-01T01:45:19;15.40;;;14.27;;
10469;SDS011;5282;47.052;15.458;2022-07-01T01:47:46;15.20;;;14.20;;
10469;SDS011;5282;47.052;15.458;2022-07-01T01:50:13;15.83;;;14.73;;
10469;SDS011;5282;47.052;15.458;2022-07-01T01:52:45;16.27;;;15.07;;
10469;SDS011;5282;47.052;15.458;2022-07-01T01:55:14;16.30;;;14.77;;
10469;SDS011;5282;47.052;15.458;2022-07-01T01:57:43;15.80;;;14.70;;
10469;SDS011;5282;47.052;15.458;2022-07-01T02:00:10;15.70;;;14.47;;
10469;SDS011;5282;47.052;15.458;2022-07-01T02:02:43;15.50;;;14.53;;
10469;SDS011;5282;47.052;15.458;2022-07-01T02:05:11;15.00;;;14.10;;
10469;SDS011;5282;47.052;15.458;2022-07-01T02:07:41;15.43;;;14.33;;
10469;SDS011;5282;47.052;15.458;2022-07-01T02:10:09;14.33;;;13.47;;
10469;SDS011;5282;47.052;15.458;2022-07-01T02:12:37;15.73;;;14.53;;
10469;SDS011;5282;47.052;15.458;2022-07-01T02:15:12;15.23;;;14.03;;
10469;SDS011;5282;47.052;15.458;2022-07-01T02:17:39;15.27;;;14.17;;
10469;SDS011;5282;47.052;15.458;2022-07-01T02:20:06;14.60;;;13.70;;
10469;SDS011;5282;47.052;15.458;2022-07-01T02:22:35;15.70;;;14.50;;
10469;SDS011;5282;47.052;15.458;2022-07-01T02:25:02;15.07;;;14.00;;
10469;SDS011;5282;47.052;15.458;2022-07-01T02:27:30;16.00;;;14.53;;
10469;SDS011;5282;47.052;15.458;2022-07-01T02:29:57;16.33;;;15.13;;
10469;SDS011;5282;47.052;15.458;2022-07-01T02:32:25;16.00;;;14.90;;
10469;SDS011;5282;47.052;15.458;2022-07-01T02:34:52;15.53;;;14.33;;
10469;SDS011;5282;47.052;15.458;2022-07-01T02:37:19;15.90;;;14.77;;
10469;SDS011;5282;47.052;15.458;2022-07-01T02:39:46;15.63;;;14.53;;
10469;SDS011;5282;47.052;15.458;2022-07-01T02:42:12;16.17;;;14.83;;
10469;SDS011;5282;47.052;15.458;2022-07-01T02:44:52;15.10;;;14.00;;
10469;SDS011;5282;47.052;15.458;2022-07-01T02:47:19;16.60;;;15.30;;
10469;SDS011;5282;47.052;15.458;2022-07-01T02:49:48;15.10;;;14.10;;
10469;SDS011;5282;47.052;15.458;2022-07-01T02:52:18;17.40;;;15.93;;
10469;SDS011;5282;47.052;15.458;2022-07-01T02:54:45;16.87;;;15.67;;
10469;SDS011;5282;47.052;15.458;2022-07-01T02:57:12;16.20;;;15.10;;
10469;SDS011;5282;47.052;15.458;2022-07-01T02:59:39;16.90;;;15.60;;
10469;SDS011;5282;47.052;15.458;2022-07-01T03:02:06;16.67;;;15.17;;
10469;SDS011;5282;47.052;15.458;2022-07-01T03:04:35;16.67;;;15.43;;
10469;SDS011;5282;47.052;15.458;2022-07-01T03:07:04;16.90;;;15.50;;
10469;SDS011;5282;47.052;15.458;2022-07-01T03:09:31;16.57;;;15.37;;
10469;SDS011;5282;47.052;15.458;2022-07-01T03:12:04;16.27;;;15.20;;
10469;SDS011;5282;47.052;15.458;2022-07-01T03:14:51;16.13;;;15.00;;
10469;SDS011;5282;47.052;15.458;2022-07-01T03:17:19;16.20;;;15.07;;
10469;SDS011;5282;47.052;15.458;2022-07-01T03:19:50;16.57;;;15.33;;
10469;SDS011;5282;47.052;15.458;2022-07-01T03:22:25;16.70;;;15.50;;
10469;SDS011;5282;47.052;15.458;2022-07-01T03:24:55;16.17;;;15.07;;
10469;SDS011;5282;47.052;15.458;2022-07-01T03:27:23;17.33;;;15.97;;
10469;SDS011;5282;47.052;15.458;2022-07-01T03:29:57;15.90;;;14.73;;
10469;SDS011;5282;47.052;15.458;2022-07-01T03:32:25;16.87;;;15.50;;
10469;SDS011;5282;47.052;15.458;2022-07-01T03:34:54;16.97;;;15.30;;
10469;SDS011;5282;47.052;15.458;2022-07-01T03:37:22;16.20;;;15.00;;
10469;SDS011;5282;47.052;15.458;2022-07-01T03:39:52;16.90;;;15.53;;
10469;SDS011;5282;47.052;15.458;2022-07-01T03:42:19;17.07;;;15.97;;
10469;SDS011;5282;47.052;15.458;2022-07-01T03:44:46;17.30;;;16.03;;
10469;SDS011;5282;47.052;15.458;2022-07-01T03:47:13;16.93;;;15.73;;
10469;SDS011;5282;47.052;15.458;2022-07-01T03:49:41;17.17;;;15.87;;
10469;SDS011;5282;47.052;15.458;2022-07-01T03:52:11;17.03;;;15.73;;
10469;SDS011;5282;47.052;15.458;2022-07-01T03:54:38;18.03;;;16.40;;
10469;SDS011;5282;47.052;15.458;2022-07-01T03:57:06;16.63;;;15.30;;
10469;SDS011;5282;47.052;15.458;2022-07-01T03:59:37;17.73;;;16.23;;
10469;SDS011;5282;47.052;15.458;2022-07-01T04:02:06;17.30;;;15.90;;
10469;SDS011;5282;47.052;15.458;2022-07-01T04:04:34;16.97;;;15.80;;
10469;SDS011;5282;47.052;15.458;2022-07-01T04:07:02;16.37;;;15.30;;
10469;SDS011;5282;47.052;15.458;2022-07-01T04:09:31;17.50;;;16.10;;
10469;SDS011;5282;47.052;15.458;2022-07-01T04:11:58;17.33;;;15.90;;
10469;SDS011;5282;47.052;15.458;2022-07-01T04:14:26;17.10;;;15.80;;
10469;SDS011;5282;47.052;15.458;2022-07-01T04:16:53;16.77;;;15.57;;
10469;SDS011;5282;47.052;15.458;2022-07-01T04:19:20;17.97;;;16.50;;
10469;SDS011;5282;47.052;15.458;2022-07-01T04:21:49;18.60;;;17.10;;
10469;SDS011;5282;47.052;15.458;2022-07-01T04:24:33;17.60;;;16.30;;
10469;SDS011;5282;47.052;15.458;2022-07-01T04:27:01;19.60;;;18.20;;
10469;SDS011;5282;47.052;15.458;2022-07-01T04:29:29;19.27;;;17.70;;
10469;SDS011;5282;47.052;15.458;2022-07-01T04:31:56;19.43;;;17.90;;
10469;SDS011;5282;47.052;15.458;2022-07-01T04:34:24;19.43;;;18.03;;
10469;SDS011;5282;47.052;15.458;2022-07-01T04:36:51;19.33;;;17.73;;
10469;SDS011;5282;47.052;15.458;2022-07-01T04:39:18;21.40;;;19.67;;
10469;SDS011;5282;47.052;15.458;2022-07-01T04:41:45;20.60;;;19.03;;
10469;SDS011;5282;47.052;15.458;2022-07-01T04:44:29;20.37;;;18.67;;
10469;SDS011;5282;47.052;15.458;2022-07-01T04:46:57;19.50;;;18.07;;
10469;SDS011;5282;47.052;15.458;2022-07-01T04:49:25;21.07;;;19.20;;
10469;SDS011;5282;47.052;15.458;2022-07-01T04:51:55;19.40;;;17.90;;
10469;SDS011;5282;47.052;15.458;2022-07-01T04:54:22;20.57;;;18.77;;
10469;SDS011;5282;47.052;15.458;2022-07-01T04:56:50;20.50;;;18.63;;
10469;SDS011;5282;47.052;15.458;2022-07-01T04:59:18;20.87;;;18.97;;
10469;SDS011;5282;47.052;15.458;2022-07-01T05:01:47;19.83;;;18.23;;
10469;SDS011;5282;47.052;15.458;2022-07-01T05:04:15;19.93;;;18.20;;
10469;SDS011;5282;47.052;15.458;2022-07-01T05:06:42;19.73;;;18.13;;
10469;SDS011;5282;47.052;15.458;2022-07-01T05:09:09;20.23;;;18.43;;
10469;SDS011;5282;47.052;15.458;2022-07-01T05:11:36;19.57;;;17.97;;
10469;SDS011;5282;47.052;15.458;2022-07-01T05:14:04;20.87;;;18.87;;
10469;SDS011;5282;47.052;15.458;2022-07-01T05:16:33;20.83;;;19.03;;
10469;SDS011;5282;47.052;15.458;2022-07-01T05:19:02;20.13;;;18.20;;
10469;SDS011;5282;47.052;15.458;2022-07-01T05:21:47;20.83;;;19.03;;
10469;SDS011;5282;47.052;15.458;2022-07-01T05:24:24;18.83;;;17.37;;
10469;SDS011;5282;47.052;15.458;2022-07-01T05:26:53;20.87;;;19.00;;
10469;SDS011;5282;47.052;15.458;2022-07-01T05:29:20;20.10;;;18.23;;
10469;SDS011;5282;47.052;15.458;2022-07-01T05:31:49;19.87;;;18.10;;
10469;SDS011;5282;47.052;15.458;2022-07-01T05:34:17;19.83;;;17.93;;
10469;SDS011;5282;47.052;15.458;2022-07-01T05:36:47;20.03;;;18.10;;
10469;SDS011;5282;47.052;15.458;2022-07-01T05:39:14;21.13;;;19.27;;
10469;SDS011;5282;47.052;15.458;2022-07-01T05:41:41;19.77;;;17.93;;
10469;SDS011;5282;47.052;15.458;2022-07-01T05:44:07;20.23;;;18.40;;
10469;SDS011;5282;47.052;15.458;2022-07-01T05:46:34;20.37;;;18.47;;
10469;SDS011;5282;47.052;15.458;2022-07-01T05:49:01;18.90;;;17.33;;
10469;SDS011;5282;47.052;15.458;2022-07-01T05:51:30;19.17;;;17.60;;
10469;SDS011;5282;47.052;15.458;2022-07-01T05:53:57;20.57;;;18.60;;
10469;SDS011;5282;47.052;15.458;2022-07-01T05:56:23;20.00;;;18.00;;
10469;SDS011;5282;47.052;15.458;2022-07-01T05:58:51;19.30;;;17.73;;
10469;SDS011;5282;47.052;15.458;2022-07-01T06:01:18;19.10;;;17.47;;
10469;SDS011;5282;47.052;15.458;2022-07-01T06:03:45;18.67;;;16.77;;
10469;SDS011;5282;47.052;15.458;2022-07-01T06:06:12;18.83;;;17.13;;
10469;SDS011;5282;47.052;15.458;2022-07-01T06:08:40;18.63;;;17.13;;
10469;SDS011;5282;47.052;15.458;2022-07-01T06:11:07;17.90;;;16.47;;
10469;SDS011;5282;47.052;15.458;2022-07-01T06:13:34;17.83;;;16.30;;
10469;SDS011;5282;47.052;15.458;2022-07-01T06:16:01;17.47;;;16.27;;
10469;SDS011;5282;47.052;15.458;2022-07-01T06:18:29;18.50;;;16.83;;
10469;SDS011;5282;47.052;15.458;2022-07-01T06:20:55;19.70;;;18.00;;
10469;SDS011;5282;47.052;15.458;2022-07-01T06:23:22;18.80;;;17.17;;
10469;SDS011;5282;47.052;15.458;2022-07-01T06:25:51;17.57;;;16.17;;
10469;SDS011;5282;47.052;15.458;2022-07-01T06:28:18;19.00;;;17.30;;
10469;SDS011;5282;47.052;15.458;2022-07-01T06:30:45;18.80;;;17.37;;
10469;SDS011;5282;47.052;15.458;2022-07-01T06:33:14;18.27;;;16.80;;
10469;SDS011;5282;47.052;15.458;2022-07-01T06:35:41;19.13;;;17.40;;
10469;SDS011;5282;47.052;15.458;2022-07-01T06:38:07;17.20;;;15.80;;
10469;SDS011;5282;47.052;15.458;2022-07-01T06:40:34;16.97;;;15.53;;
10469;SDS011;5282;47.052;15.458;2022-07-01T06:43:03;17.23;;;15.93;;
10469;SDS011;5282;47.052;15.458;2022-07-01T06:45:29;18.70;;;16.90;;
10469;SDS011;5282;47.052;15.458;2022-07-01T06:47:57;17.20;;;15.63;;
10469;SDS011;5282;47.052;15.458;2022-07-01T06:50:23;16.83;;;15.40;;
10469;SDS011;5282;47.052;15.458;2022-07-01T06:52:50;16.73;;;15.00;;
10469;SDS011;5282;47.052;15.458;2022-07-01T06:55:17;16.57;;;15.17;;
10469;SDS011;5282;47.052;15.458;2022-07-01T06:57:45;16.47;;;14.93;;
10469;SDS011;5282;47.052;15.458;2022-07-01T07:00:14;16.97;;;15.57;;
10469;SDS011;5282;47.052;15.458;2022-07-01T07:02:43;16.30;;;15.10;;
10469;SDS011;5282;47.052;15.458;2022-07-01T07:05:11;18.40;;;15.53;;
10469;SDS011;5282;47.052;15.458;2022-07-01T07:07:38;16.50;;;15.10;;
10469;SDS011;5282;47.052;15.458;2022-07-01T07:10:05;16.50;;;15.30;;
10469;SDS011;5282;47.052;15.458;2022-07-01T07:12:33;16.33;;;14.73;;
10469;SDS011;5282;47.052;15.458;2022-07-01T07:15:00;14.60;;;13.40;;
10469;SDS011;5282;47.052;15.458;2022-07-01T07:17:28;15.60;;;14.30;;
10469;SDS011;5282;47.052;15.458;2022-07-01T07:19:55;14.47;;;13.37;;
10469;SDS011;5282;47.052;15.458;2022-07-01T07:22:22;12.43;;;11.63;;
10469;SDS011;5282;47.052;15.458;2022-07-01T07:24:49;13.37;;;12.40;;
10469;SDS011;5282;47.052;15.458;2022-07-01T07:27:16;13.10;;;12.20;;
10469;SDS011;5282;47.052;15.458;2022-07-01T07:29:45;14.00;;;13.00;;
10469;SDS011;5282;47.052;15.458;2022-07-01T07:32:12;13.40;;;12.05;;
10469;SDS011;5282;47.052;15.458;2022-07-01T07:34:40;12.32;;;11.45;;
10469;SDS011;5282;47.052;15.458;2022-07-01T07:37:07;12.07;;;11.27;;
10469;SDS011;5282;47.052;15.458;2022-07-01T07:39:34;12.57;;;11.50;;
10469;SDS011;5282;47.052;15.458;2022-07-01T07:42:01;12.43;;;11.32;;
10469;SDS011;5282;47.052;15.458;2022-07-01T07:44:28;11.55;;;10.93;;
10469;SDS011;5282;47.052;15.458;2022-07-01T07:46:56;12.02;;;11.23;;
10469;SDS011;5282;47.052;15.458;2022-07-01T07:49:23;14.32;;;12.82;;
10469;SDS011;5282;47.052;15.458;2022-07-01T07:51:52;13.32;;;12.32;;
10469;SDS011;5282;47.052;15.458;2022-07-01T07:54:19;14.63;;;13.15;;
10469;SDS011;5282;47.052;15.458;2022-07-01T07:56:46;15.25;;;14.15;;
10469;SDS011;5282;47.052;15.458;2022-07-01T07:59:13;15.27;;;14.13;;
10469;SDS011;5282;47.052;15.458;2022-07-01T08:01:40;13.90;;;12.77;;
10469;SDS011;5282;47.052;15.458;2022-07-01T08:04:06;13.73;;;12.68;;
10469;SDS011;5282;47.052;15.458;2022-07-01T08:06:33;12.98;;;11.95;;
10469;SDS011;5282;47.052;15.458;2022-07-01T08:09:02;13.32;;;12.02;;
10469;SDS011;5282;47.052;15.458;2022-07-01T08:11:29;12.60;;;11.50;;
10469;SDS011;5282;47.052;15.458;2022-07-01T08:13:56;12.32;;;11.57;;
10469;SDS011;5282;47.052;15.458;2022-07-01T08:16:23;13.63;;;12.55;;
10469;SDS011;5282;47.052;15.458;2022-07-01T08:18:50;14.05;;;12.80;;
10469;SDS011;5282;47.052;15.458;2022-07-01T08:21:17;13.45;;;12.45;;
10469;SDS011;5282;47.052;15.458;2022-07-01T08:23:44;14.10;;;13.20;;
10469;SDS011;5282;47.052;15.458;2022-07-01T08:26:12;13.55;;;12.45;;
10469;SDS011;5282;47.052;15.458;2022-07-01T08:28:40;14.73;;;13.43;;
10469;SDS011;5282;47.052;15.458;2022-07-01T08:31:07;12.93;;;12.00;;
10469;SDS011;5282;47.052;15.458;2022-07-01T08:33:34;13.80;;;12.55;;
10469;SDS011;5282;47.052;15.458;2022-07-01T08:36:02;13.18;;;12.27;;
10469;SDS011;5282;47.052;15.458;2022-07-01T08:38:30;13.77;;;12.50;;
10469;SDS011;5282;47.052;15.458;2022-07-01T08:40:57;12.77;;;11.75;;
10469;SDS011;5282;47.052;15.458;2022-07-01T08:43:25;11.95;;;10.98;;
10469;SDS011;5282;47.052;15.458;2022-07-01T08:45:52;12.65;;;11.60;;
10469;SDS011;5282;47.052;15.458;2022-07-01T08:48:19;12.95;;;12.13;;
10469;SDS011;5282;47.052;15.458;2022-07-01T08:50:46;12.75;;;11.90;;
10469;SDS011;5282;47.052;15.458;2022-07-01T08:53:13;12.98;;;12.18;;
10469;SDS011;5282;47.052;15.458;2022-07-01T08:55:40;12.88;;;11.88;;
10469;SDS011;5282;47.052;15.458;2022-07-01T08:58:25;12.90;;;12.02;;
10469;SDS011;5282;47.052;15.458;2022-07-01T09:00:57;14.15;;;13.00;;
10469;SDS011;5282;47.052;15.458;2022-07-01T09:03:39;12.25;;;11.18;;
10469;SDS011;5282;47.052;15.458;2022-07-01T09:06:10;12.48;;;11.68;;
10469;SDS011;5282;47.052;15.458;2022-07-01T09:08:38;12.45;;;11.55;;
10469;SDS011;5282;47.052;15.458;2022-07-01T09:11:10;11.75;;;10.88;;
10469;SDS011;5282;47.052;15.458;2022-07-01T09:13:41;12.43;;;11.43;;
10469;SDS011;5282;47.052;15.458;2022-07-01T09:16:12;12.10;;;11.30;;
10469;SDS011;5282;47.052;15.458;2022-07-01T09:18:47;11.15;;;10.38;;
10469;SDS011;5282;47.052;15.458;2022-07-01T09:21:27;11.20;;;10.30;;
10469;SDS011;5282;47.052;15.458;2022-07-01T09:23:54;10.68;;;9.80;;
10469;SDS011;5282;47.052;15.458;2022-07-01T09:26:21;10.57;;;9.82;;
10469;SDS011;5282;47.052;15.458;2022-07-01T09:28:53;10.73;;;9.88;;
10469;SDS011;5282;47.052;15.458;2022-07-01T09:31:21;11.32;;;10.27;;
10469;SDS011;5282;47.052;15.458;2022-07-01T09:34:02;10.75;;;10.07;;
10469;SDS011;5282;47.052;15.458;2022-07-01T09:36:30;10.73;;;9.85;;
10469;SDS011;5282;47.052;15.458;2022-07-01T09:39:01;11.20;;;10.25;;
10469;SDS011;5282;47.052;15.458;2022-07-01T09:41:34;9.98;;;9.20;;
10469;SDS011;5282;47.052;15.458;2022-07-01T09:44:06;9.13;;;8.50;;
10469;SDS011;5282;47.052;15.458;2022-07-01T09:46:35;10.45;;;9.57;;
10469;SDS011;5282;47.052;15.458;2022-07-01T09:49:02;9.93;;;9.32;;
10469;SDS011;5282;47.052;15.458;2022-07-01T09:51:30;9.65;;;8.95;;
10469;SDS011;5282;47.052;15.458;2022-07-01T09:53:59;9.85;;;8.95;;
10469;SDS011;5282;47.052;15.458;2022-07-01T09:56:26;9.50;;;8.80;;
10469;SDS011;5282;47.052;15.458;2022-07-01T09:58:53;9.95;;;9.25;;
10469;SDS011;5282;47.052;15.458;2022-07-01T10:01:23;8.68;;;7.90;;
10469;SDS011;5282;47.052;15.458;2022-07-01T10:03:51;8.77;;;8.15;;
10469;SDS011;5282;47.052;15.458;2022-07-01T10:09:12;9.35;;;8.65;;
10469;SDS011;5282;47.052;15.458;2022-07-01T10:14:53;10.05;;;9.45;;
10469;SDS011;5282;47.052;15.458;2022-07-01T10:17:30;10.68;;;9.68;;
10469;SDS011;5282;47.052;15.458;2022-07-01T10:20:05;9.95;;;9.02;;
10469;SDS011;5282;47.052;15.458;2022-07-01T10:22:35;9.43;;;8.80;;
10469;SDS011;5282;47.052;15.458;2022-07-01T10:28:12;9.80;;;9.05;;
10469;SDS011;5282;47.052;15.458;2022-07-01T10:30:53;9.02;;;8.32;;
10469;SDS011;5282;47.052;15.458;2022-07-01T10:33:33;9.05;;;8.38;;
10469;SDS011;5282;47.052;15.458;2022-07-01T10:36:06;8.98;;;8.15;;
10469;SDS011;5282;47.052;15.458;2022-07-01T10:39:06;8.98;;;8.35;;
10469;SDS011;5282;47.052;15.458;2022-07-01T10:41:57;8.57;;;8.02;;
10469;SDS011;5282;47.052;15.458;2022-07-01T10:44:26;8.13;;;7.53;;
10469;SDS011;5282;47.052;15.458;2022-07-01T10:46:55;7.82;;;7.40;;
10469;SDS011;5282;47.052;15.458;2022-07-01T10:52:24;7.80;;;7.20;;
10469;SDS011;5282;47.052;15.458;2022-07-01T10:54:52;7.10;;;6.60;;
10469;SDS011;5282;47.052;15.458;2022-07-01T10:57:26;6.50;;;6.07;;
10469;SDS011;5282;47.052;15.458;2022-07-01T10:59:55;7.35;;;6.70;;
10469;SDS011;5282;47.052;15.458;2022-07-01T11:02:43;6.93;;;6.40;;
10469;SDS011;5282;47.052;15.458;2022-07-01T11:05:11;6.97;;;6.30;;
10469;SDS011;5282;47.052;15.458;2022-07-01T11:07:41;6.05;;;5.55;;
10469;SDS011;5282;47.052;15.458;2022-07-01T11:10:12;5.78;;;5.45;;
10469;SDS011;5282;47.052;15.458;2022-07-01T11:12:40;6.38;;;5.68;;
10469;SDS011;5282;47.052;15.458;2022-07-01T11:15:10;6.10;;;5.55;;
10469;SDS011;5282;47.052;15.458;2022-07-01T11:17:41;5.72;;;5.32;;
10469;SDS011;5282;47.052;15.458;2022-07-01T11:20:09;6.10;;;5.60;;
10469;SDS011;5282;47.052;15.458;2022-07-01T11:22:37;6.93;;;5.80;;
10469;SDS011;5282;47.052;15.458;2022-07-01T11:25:06;6.28;;;5.45;;
10469;SDS011;5282;47.052;15.458;2022-07-01T11:27:35;5.53;;;5.05;;
10469;SDS011;5282;47.052;15.458;2022-07-01T11:30:04;5.57;;;5.20;;
10469;SDS011;5282;47.052;15.458;2022-07-01T11:32:35;5.72;;;5.20;;
10469;SDS011;5282;47.052;15.458;2022-07-01T11:35:04;6.38;;;5.50;;
10469;SDS011;5282;47.052;15.458;2022-07-01T11:38:03;6.00;;;5.68;;
10469;SDS011;5282;47.052;15.458;2022-07-01T11:40:50;5.75;;;5.30;;
10469;SDS011;5282;47.052;15.458;2022-07-01T11:43:17;5.18;;;4.88;;
10469;SDS011;5282;47.052;15.458;2022-07-01T11:45:45;5.70;;;5.15;;
10469;SDS011;5282;47.052;15.458;2022-07-01T11:48:27;5.65;;;5.10;;
10469;SDS011;5282;47.052;15.458;2022-07-01T11:50:55;7.60;;;5.22;;
10469;SDS011;5282;47.052;15.458;2022-07-01T11:53:22;5.57;;;4.97;;
10469;SDS011;5282;47.052;15.458;2022-07-01T11:55:51;6.28;;;5.68;;
10469;SDS011;5282;47.052;15.458;2022-07-01T11:58:18;8.25;;;6.07;;
10469;SDS011;5282;47.052;15.458;2022-07-01T12:00:47;5.45;;;4.93;;
10469;SDS011;5282;47.052;15.458;2022-07-01T12:03:28;6.03;;;5.50;;
10469;SDS011;5282;47.052;15.458;2022-07-01T12:05:58;6.40;;;5.88;;
10469;SDS011;5282;47.052;15.458;2022-07-01T12:08:26;6.05;;;5.40;;
10469;SDS011;5282;47.052;15.458;2022-07-01T12:10:54;5.93;;;5.53;;
10469;SDS011;5282;47.052;15.458;2022-07-01T12:13:25;5.40;;;5.00;;
10469;SDS011;5282;47.052;15.458;2022-07-01T12:15:53;5.15;;;4.93;;
10469;SDS011;5282;47.052;15.458;2022-07-01T12:18:20;6.93;;;5.07;;
10469;SDS011;5282;47.052;15.458;2022-07-01T12:20:48;5.60;;;5.10;;
10469;SDS011;5282;47.052;15.458;2022-07-01T12:23:16;5.18;;;4.78;;
10469;SDS011;5282;47.052;15.458;2022-07-01T12:25:47;5.22;;;4.72;;
10469;SDS011;5282;47.052;15.458;2022-07-01T12:28:27;4.93;;;4.57;;
10469;SDS011;5282;47.052;15.458;2022-07-01T12:30:59;4.85;;;4.55;;
10469;SDS011;5282;47.052;15.458;2022-07-01T12:33:32;4.95;;;4.47;;
10469;SDS011;5282;47.052;15.458;2022-07-01T12:36:00;5.13;;;4.80;;
10469;SDS011;5282;47.052;15.458;2022-07-01T12:38:28;5.30;;;4.82;;
10469;SDS011;5282;47.052;15.458;2022-07-01T12:40:56;5.38;;;4.90;;
10469;SDS011;5282;47.052;15.458;2022-07-01T12:43:28;5.55;;;5.15;;
10469;SDS011;5282;47.052;15.458;2022-07-01T12:45:57;5.63;;;5.10;;
10469;SDS011;5282;47.052;15.458;2022-07-01T12:48:25;4.60;;;4.30;;
10469;SDS011;5282;47.052;15.458;2022-07-01T12:50:53;5.15;;;4.57;;
10469;SDS011;5282;47.052;15.458;2022-07-01T12:53:21;4.97;;;4.53;;
10469;SDS011;5282;47.052;15.458;2022-07-01T12:55:51;5.20;;;4.90;;
10469;SDS011;5282;47.052;15.458;2022-07-01T12:58:21;5.00;;;4.55;;
10469;SDS011;5282;47.052;15.458;2022-07-01T13:00:50;5.13;;;4.70;;
10469;SDS011;5282;47.052;15.458;2022-07-01T13:03:19;5.05;;;4.63;;
10469;SDS011;5282;47.052;15.458;2022-07-01T13:05:48;5.68;;;5.03;;
10469;SDS011;5282;47.052;15.458;2022-07-01T13:08:16;5.13;;;4.60;;
10469;SDS011;5282;47.052;15.458;2022-07-01T13:10:43;5.35;;;5.03;;
10469;SDS011;5282;47.052;15.458;2022-07-01T13:13:11;5.30;;;4.53;;
10469;SDS011;5282;47.052;15.458;2022-07-01T13:15:38;4.90;;;4.43;;
10469;SDS011;5282;47.052;15.458;2022-07-01T13:18:07;5.30;;;4.90;;
10469;SDS011;5282;47.052;15.458;2022-07-01T13:20:35;5.22;;;4.75;;
10469;SDS011;5282;47.052;15.458;2022-07-01T13:23:03;5.03;;;4.72;;
10469;SDS011;5282;47.052;15.458;2022-07-01T13:25:30;4.95;;;4.63;;
10469;SDS011;5282;47.052;15.458;2022-07-01T13:27:58;4.82;;;4.53;;
10469;SDS011;5282;47.052;15.458;2022-07-01T13:30:25;6.63;;;4.47;;
10469;SDS011;5282;47.052;15.458;2022-07-01T13:32:52;4.65;;;4.43;;
10469;SDS011;5282;47.052;15.458;2022-07-01T13:35:21;4.55;;;4.15;;
10469;SDS011;5282;47.052;15.458;2022-07-01T13:37:49;4.97;;;4.55;;
10469;SDS011;5282;47.052;15.458;2022-07-01T13:40:16;5.10;;;4.60;;
10469;SDS011;5282;47.052;15.458;2022-07-01T13:42:44;5.45;;;5.05;;
10469;SDS011;5282;47.052;15.458;2022-07-01T13:45:11;5.32;;;4.93;;
10469;SDS011;5282;47.052;15.458;2022-07-01T13:47:38;4.53;;;4.10;;
10469;SDS011;5282;47.052;15.458;2022-07-01T13:50:06;4.50;;;4.10;;
10469;SDS011;5282;47.052;15.458;2022-07-01T13:52:35;5.28;;;4.80;;
10469;SDS011;5282;47.052;15.458;2022-07-01T13:55:03;4.93;;;4.60;;
10469;SDS011;5282;47.052;15.458;2022-07-01T13:57:31;6.45;;;4.50;;
10469;SDS011;5282;47.052;15.458;2022-07-01T13:59:58;4.97;;;4.68;;
10469;SDS011;5282;47.052;15.458;2022-07-01T14:02:25;5.35;;;4.70;;
10469;SDS011;5282;47.052;15.458;2022-07-01T14:04:53;4.88;;;4.40;;
10469;SDS011;5282;47.052;15.458;2022-07-01T14:07:19;5.10;;;4.70;;
10469;SDS011;5282;47.052;15.458;2022-07-01T14:09:48;4.85;;;4.50;;
10469;SDS011;5282;47.052;15.458;2022-07-01T14:12:15;5.50;;;4.60;;
10469;SDS011;5282;47.052;15.458;2022-07-01T14:14:42;6.57;;;5.03;;
10469;SDS011;5282;47.052;15.458;2022-07-01T14:17:09;4.60;;;4.30;;
10469;SDS011;5282;47.052;15.458;2022-07-01T14:19:36;4.85;;;4.55;;
10469;SDS011;5282;47.052;15.458;2022-07-01T14:22:03;4.80;;;4.50;;
10469;SDS011;5282;47.052;15.458;2022-07-01T14:24:30;4.00;;;3.80;;
10469;SDS011;5282;47.052;15.458;2022-07-01T14:26:58;6.88;;;4.50;;
10469;SDS011;5282;47.052;15.458;2022-07-01T14:29:26;4.90;;;4.50;;
10469;SDS011;5282;47.052;15.458;2022-07-01T14:31:53;4.45;;;4.05;;
10469;SDS011;5282;47.052;15.458;2022-07-01T14:34:20;4.80;;;3.90;;
10469;SDS011;5282;47.052;15.458;2022-07-01T14:36:47;4.45;;;4.00;;
10469;SDS011;5282;47.052;15.458;2022-07-01T14:39:14;4.65;;;4.00;;
10469;SDS011;5282;47.052;15.458;2022-07-01T14:41:41;5.70;;;3.75;;
10469;SDS011;5282;47.052;15.458;2022-07-01T14:44:09;3.67;;;3.58;;
10469;SDS011;5282;47.052;15.458;2022-07-01T14:46:36;6.05;;;3.95;;
10469;SDS011;5282;47.052;15.458;2022-07-01T14:49:03;5.13;;;3.63;;
10469;SDS011;5282;47.052;15.458;2022-07-01T14:51:30;4.35;;;3.88;;
10469;SDS011;5282;47.052;15.458;2022-07-01T14:53:57;4.45;;;4.15;;